Time;durP1;ratioP1;P1;durP2;ratioP2;P2;SDS_P1;SDS_P2;PMS_P1;PMS_P2;Temp;Humidity;BMP_temperature;BMP_pressure;BME280_temperature;BME280_humidity;BME280_pressure;Samples;Min_cycle;Max_cycle;Signal;HPM_P1;HPM_P2
2024/01/25 00:03:46;;;;;;;7.97;1.40;;;5.50;99.90;;;;;;10397312;28;20275;-81
2024/01/25 00:09:08;;;;;;;8.63;2.33;;;5.50;1.00;;;;;;10382073;28;20223;-85
2024/01/25 00:14:29;;;;;;;13.37;2.37;;;5.40;88.80;;;;;;10381935;28;20422;-81
2024/01/25 00:19:50;;;;;;;9.90;2.00;;;5.50;1.00;;;;;;10482932;28;20244;-86
2024/01/25 00:25:12;;;;;;;11.13;2.13;;;5.50;1.00;;;;;;10499205;28;20196;-86
2024/01/25 00:30:33;;;;;;;11.87;2.53;;;5.50;1.00;;;;;;10331518;28;20231;-85
2024/01/25 00:35:55;;;;;;;8.53;1.60;;;5.50;1.00;;;;;;10412475;28;20200;-84
2024/01/25 00:41:18;;;;;;;9.67;2.00;;;5.50;1.00;;;;;;10367448;28;20221;-83
2024/01/25 00:46:40;;;;;;;13.07;2.60;;;5.40;1.00;;;;;;10397975;28;20361;-86
2024/01/25 00:52:03;;;;;;;16.33;3.13;;;5.40;1.00;;;;;;10397289;28;20220;-85
2024/01/25 00:57:25;;;;;;;14.10;2.97;;;5.50;1.00;;;;;;10300182;28;20198;-85
2024/01/25 01:02:48;;;;;;;15.00;2.67;;;5.40;99.90;;;;;;10310028;28;20195;-85
2024/01/25 01:08:10;;;;;;;13.80;2.50;;;5.30;99.90;;;;;;10380117;28;20220;-84
2024/01/25 01:13:31;;;;;;;14.30;3.10;;;5.40;1.00;;;;;;10380555;28;20230;-85
2024/01/25 01:18:55;;;;;;;16.70;2.83;;;5.30;99.90;;;;;;10536097;28;20463;-85
2024/01/25 01:24:16;;;;;;;23.50;4.27;;;5.30;1.00;;;;;;10507919;28;20200;-82
2024/01/25 01:29:38;;;;;;;15.97;3.13;;;5.30;1.00;;;;;;10334091;28;20227;-84
2024/01/25 01:34:59;;;;;;;18.17;3.63;;;5.30;1.00;;;;;;10355621;28;20205;-83
2024/01/25 01:40:20;;;;;;;16.13;2.87;;;5.30;99.90;;;;;;10268266;29;20192;-83
2024/01/25 01:45:42;;;;;;;18.77;3.50;;;5.40;29.40;;;;;;10354911;28;20234;-81
2024/01/25 01:51:03;;;;;;;14.90;2.90;;;5.40;1.00;;;;;;10365960;28;20227;-82
2024/01/25 01:56:28;;;;;;;17.90;3.67;;;5.30;1.00;;;;;;10307345;28;20544;-86
2024/01/25 02:01:49;;;;;;;15.13;2.90;;;5.30;1.00;;;;;;10382194;28;20200;-86
2024/01/25 02:07:12;;;;;;;13.73;2.70;;;5.30;99.90;;;;;;10333049;28;20207;-82
2024/01/25 02:12:36;;;;;;;15.37;2.40;;;5.30;1.00;;;;;;10363798;28;20306;-85
2024/01/25 02:18:00;;;;;;;14.47;2.50;;;5.30;1.00;;;;;;10531956;28;20274;-86
2024/01/25 02:23:22;;;;;;;14.87;2.47;;;5.30;1.00;;;;;;10518119;28;20383;-87
2024/01/25 02:28:44;;;;;;;11.10;2.20;;;5.30;1.00;;;;;;10365920;28;20299;-86
2024/01/25 02:34:07;;;;;;;9.97;2.10;;;5.20;1.00;;;;;;10276631;28;20208;-86
2024/01/25 02:39:28;;;;;;;11.90;1.87;;;5.20;1.00;;;;;;10385862;28;20196;-86
2024/01/25 02:44:50;;;;;;;6.50;1.47;;;5.20;1.00;;;;;;10400325;28;20187;-83
2024/01/25 02:50:11;;;;;;;10.57;2.37;;;5.20;1.00;;;;;;10369124;28;20272;-84
2024/01/25 02:55:33;;;;;;;10.07;1.70;;;5.20;1.00;;;;;;10303577;28;20201;-86
2024/01/25 03:00:54;;;;;;;4.70;1.17;;;5.20;1.00;;;;;;10392741;28;20282;-86
2024/01/25 03:06:16;;;;;;;8.13;1.53;;;5.20;99.90;;;;;;10401596;28;20248;-85
2024/01/25 03:11:37;;;;;;;7.73;1.40;;;5.10;99.90;;;;;;10358621;28;20237;-85
2024/01/25 03:16:59;;;;;;;5.77;1.63;;;5.20;99.90;;;;;;10404489;28;20215;-86
2024/01/25 03:22:20;;;;;;;6.90;1.40;;;5.20;99.90;;;;;;10392432;28;20251;-86
2024/01/25 03:27:42;;;;;;;6.00;1.57;;;5.10;99.90;;;;;;10383492;28;20206;-85
2024/01/25 03:33:04;;;;;;;7.53;1.17;;;5.10;1.00;;;;;;10326530;28;20263;-82
2024/01/25 03:38:29;;;;;;;8.17;1.97;;;5.10;1.00;;;;;;10415043;28;20366;-85
2024/01/25 03:43:51;;;;;;;8.13;1.67;;;5.20;1.00;;;;;;10382313;28;20200;-83
2024/01/25 03:49:15;;;;;;;6.63;1.90;;;5.20;99.90;;;;;;10414861;28;20241;-83
2024/01/25 03:54:39;;;;;;;12.83;1.60;;;5.20;99.90;;;;;;10310575;28;20199;-83
2024/01/25 04:00:03;;;;;;;9.17;1.90;;;5.20;99.90;;;;;;10508038;28;20196;-82
2024/01/25 04:05:27;;;;;;;12.50;2.10;;;5.10;1.00;;;;;;10522311;28;20387;-84
2024/01/25 04:10:50;;;;;;;6.20;1.63;;;5.20;1.00;;;;;;10397712;28;20239;-85
2024/01/25 04:16:14;;;;;;;8.50;1.83;;;5.20;1.00;;;;;;10465381;28;20266;-86
2024/01/25 04:21:38;;;;;;;8.97;1.83;;;5.20;1.00;;;;;;10509031;28;20266;-82
2024/01/25 04:27:02;;;;;;;11.10;2.07;;;5.10;1.00;;;;;;10522110;28;20386;-83
2024/01/25 04:32:24;;;;;;;5.07;1.20;;;5.10;99.90;;;;;;10522356;28;20231;-81
2024/01/25 04:37:47;;;;;;;4.90;1.40;;;5.10;99.90;;;;;;10523977;28;20275;-86
2024/01/25 04:43:11;;;;;;;6.17;1.43;;;5.10;1.00;;;;;;10370360;28;20206;-86
2024/01/25 04:48:34;;;;;;;11.17;1.50;;;5.00;91.00;;;;;;10310833;28;20215;-84
2024/01/25 04:53:55;;;;;;;2.40;0.97;;;5.00;99.90;;;;;;10395102;28;20191;-85
2024/01/25 04:59:17;;;;;;;7.20;1.87;;;5.10;1.00;;;;;;10422407;28;20196;-82
2024/01/25 05:04:38;;;;;;;5.17;1.30;;;5.10;99.90;;;;;;10520381;28;20194;-86
2024/01/25 05:10:00;;;;;;;3.87;1.20;;;5.10;99.90;;;;;;10374082;28;20240;-81
2024/01/25 05:15:21;;;;;;;6.23;1.83;;;5.10;99.90;;;;;;10410119;28;20191;-87
2024/01/25 05:20:43;;;;;;;2.60;1.10;;;5.10;99.90;;;;;;10519772;28;20228;-86
2024/01/25 05:26:06;;;;;;;3.23;1.00;;;5.00;99.90;;;;;;10519519;28;20195;-83
2024/01/25 05:31:30;;;;;;;5.33;1.00;;;5.00;99.90;;;;;;10519408;28;20580;-84
2024/01/25 05:36:52;;;;;;;3.63;1.10;;;5.10;99.90;;;;;;10462782;28;20219;-81
2024/01/25 05:42:15;;;;;;;4.87;1.10;;;5.10;1.00;;;;;;10356740;28;20209;-84
2024/01/25 05:47:39;;;;;;;3.87;1.20;;;5.10;1.00;;;;;;10334867;28;20393;-84
2024/01/25 05:53:00;;;;;;;6.07;1.40;;;5.10;1.00;;;;;;10294540;28;20231;-82
2024/01/25 05:58:24;;;;;;;2.80;1.10;;;5.10;1.00;;;;;;10308407;28;20197;-84
2024/01/25 06:03:48;;;;;;;5.13;1.13;;;5.10;1.00;;;;;;10377032;28;20211;-85
2024/01/25 06:09:09;;;;;;;3.23;1.40;;;5.00;1.00;;;;;;10393892;28;20223;-81
2024/01/25 06:14:31;;;;;;;2.43;1.00;;;5.10;1.00;;;;;;10315430;28;20586;-82
2024/01/25 06:19:52;;;;;;;5.53;1.57;;;5.20;1.00;;;;;;10274147;28;20311;-86
2024/01/25 06:25:14;;;;;;;4.50;1.47;;;5.10;1.00;;;;;;10261335;28;20200;-85
2024/01/25 06:30:35;;;;;;;8.73;2.43;;;5.10;1.00;;;;;;10274377;29;20234;-85
2024/01/25 06:35:58;;;;;;;4.10;1.67;;;5.10;1.00;;;;;;10277370;28;20199;-86
2024/01/25 06:41:20;;;;;;;6.13;1.70;;;5.20;1.00;;;;;;10402457;28;20207;-85
2024/01/25 06:46:42;;;;;;;9.83;3.37;;;5.30;1.00;;;;;;10385296;28;20269;-83
2024/01/25 06:52:04;;;;;;;7.47;2.37;;;5.20;1.00;;;;;;10358795;28;20446;-82
2024/01/25 06:57:25;;;;;;;6.67;2.37;;;5.30;1.00;;;;;;10362305;28;20191;-82
2024/01/25 07:02:46;;;;;;;4.50;2.30;;;5.30;1.00;;;;;;10382737;28;20278;-82
2024/01/25 07:08:12;;;;;;;10.10;2.30;;;5.20;1.00;;;;;;10401035;28;20249;-85
2024/01/25 07:13:34;;;;;;;8.00;2.03;;;5.30;1.00;;;;;;10331190;28;20407;-82
2024/01/25 07:18:55;;;;;;;15.57;2.30;;;5.30;1.00;;;;;;10532266;28;20231;-88
2024/01/25 07:24:17;;;;;;;11.77;3.00;;;5.30;1.00;;;;;;10509409;28;20197;-85
2024/01/25 07:29:38;;;;;;;10.20;2.87;;;5.30;1.00;;;;;;10527107;28;20239;-86
2024/01/25 07:34:59;;;;;;;7.97;2.60;;;5.50;1.00;;;;;;10293329;28;20208;-83
2024/01/25 07:40:21;;;;;;;8.73;2.53;;;5.60;1.00;;;;;;10376268;28;20203;-86
2024/01/25 07:45:42;;;;;;;9.00;3.03;;;5.50;1.00;;;;;;10359281;28;20206;-87
2024/01/25 07:51:12;;;;;;;17.23;3.70;;;5.40;1.00;;;;;;10370363;28;20235;-85
2024/01/25 07:56:33;;;;;;;12.93;2.57;;;5.40;1.00;;;;;;10313050;28;20237;-83
2024/01/25 08:01:54;;;;;;;10.57;3.80;;;5.40;1.00;;;;;;10306620;28;20449;-85
2024/01/25 08:07:15;;;;;;;11.97;3.53;;;5.30;1.00;;;;;;10375045;28;20545;-82
2024/01/25 08:12:39;;;;;;;9.33;4.10;;;5.30;1.00;;;;;;10397469;28;20483;-83
2024/01/25 08:18:03;;;;;;;8.57;3.37;;;5.30;1.00;;;;;;10536276;28;20304;-85
2024/01/25 08:23:25;;;;;;;13.90;4.90;;;5.30;1.00;;;;;;10381562;28;20239;-90
2024/01/25 08:28:46;;;;;;;10.20;3.10;;;5.30;1.00;;;;;;10492832;28;20203;-87
2024/01/25 08:34:08;;;;;;;9.90;4.27;;;5.30;1.00;;;;;;10383447;28;20283;-84
2024/01/25 08:39:29;;;;;;;14.10;7.03;;;5.30;1.00;;;;;;10415302;28;20209;-85
2024/01/25 08:44:50;;;;;;;22.67;9.27;;;5.40;1.00;;;;;;10309414;28;20192;-81
2024/01/25 08:50:12;;;;;;;14.57;8.10;;;5.40;1.00;;;;;;10293878;28;20271;-81
2024/01/25 08:55:33;;;;;;;18.00;4.53;;;5.30;99.90;;;;;;10373705;28;20280;-81
2024/01/25 09:00:55;;;;;;;8.20;4.27;;;4.80;99.90;;;;;;10359782;28;20214;-82
2024/01/25 09:06:16;;;;;;;12.83;5.33;;;4.50;1.00;;;;;;10354873;28;20207;-84
2024/01/25 09:11:37;;;;;;;15.67;6.33;;;4.20;1.00;;;;;;10283089;28;20476;-82
2024/01/25 09:16:59;;;;;;;15.37;6.90;;;4.20;1.00;;;;;;10450009;28;20272;-81
2024/01/25 09:22:20;;;;;;;12.27;6.00;;;4.10;1.00;;;;;;10420553;28;20300;-81
2024/01/25 09:27:42;;;;;;;8.57;4.33;;;4.10;14.30;;;;;;10288354;28;20206;-82
2024/01/25 09:33:03;;;;;;;6.87;4.27;;;4.20;1.00;;;;;;10374060;28;20245;-84
2024/01/25 09:38:24;;;;;;;5.60;3.27;;;4.20;1.00;;;;;;10363190;28;20260;-81
2024/01/25 09:43:46;;;;;;;5.77;3.40;;;4.40;73.60;;;;;;10324936;28;20216;-80
2024/01/25 09:49:08;;;;;;;7.57;4.17;;;4.40;19.80;;;;;;10387211;28;20215;-80
2024/01/25 09:54:33;;;;;;;8.87;4.27;;;4.40;4.40;;;;;;10265605;28;20269;-80
2024/01/25 09:59:55;;;;;;;5.73;2.67;;;4.50;96.40;;;;;;10366983;28;20198;-80
2024/01/25 10:05:18;;;;;;;7.60;3.40;;;4.60;1.00;;;;;;10355301;28;20216;-79
2024/01/25 10:10:39;;;;;;;6.87;4.23;;;4.60;99.90;;;;;;10354668;28;20238;-80
2024/01/25 10:16:00;;;;;;;8.33;4.03;;;4.60;1.00;;;;;;10457850;28;20202;-81
2024/01/25 10:21:22;;;;;;;8.83;3.87;;;4.70;1.00;;;;;;10510175;28;20250;-80
2024/01/25 10:26:43;;;;;;;3.97;1.93;;;4.60;99.90;;;;;;10509231;28;20201;-80
2024/01/25 10:32:06;;;;;;;7.13;3.30;;;4.70;1.00;;;;;;10509318;28;20237;-80
2024/01/25 10:37:28;;;;;;;9.33;4.40;;;4.70;1.00;;;;;;10356019;28;20212;-79
2024/01/25 10:42:50;;;;;;;6.67;3.47;;;4.60;1.00;;;;;;10403994;28;20262;-81
2024/01/25 10:48:13;;;;;;;4.33;2.70;;;4.60;1.00;;;;;;10384642;28;20199;-84
2024/01/25 10:53:35;;;;;;;2.97;1.97;;;4.60;99.90;;;;;;10283104;28;20254;-82
2024/01/25 10:58:56;;;;;;;5.27;2.43;;;4.60;99.90;;;;;;10445744;28;20525;-81
2024/01/25 11:04:19;;;;;;;4.37;1.93;;;4.60;99.90;;;;;;10484183;28;20614;-82
2024/01/25 11:09:41;;;;;;;5.67;2.10;;;4.80;99.90;;;;;;10413728;28;20241;-82
2024/01/25 11:15:07;;;;;;;5.67;2.73;;;4.90;1.00;;;;;;10420414;27;20195;-83
2024/01/25 11:20:29;;;;;;;2.97;1.60;;;4.70;1.00;;;;;;10405681;28;20234;-81
2024/01/25 11:25:55;;;;;;;3.73;2.03;;;4.70;1.00;;;;;;10330995;28;20226;-83
2024/01/25 11:31:18;;;;;;;3.00;1.60;;;4.80;99.90;;;;;;10323039;28;20227;-83
2024/01/25 11:36:40;;;;;;;5.63;3.20;;;4.80;99.90;;;;;;10272023;28;20223;-83
2024/01/25 11:42:01;;;;;;;7.53;3.90;;;4.90;99.90;;;;;;10350540;28;20204;-85
2024/01/25 11:47:22;;;;;;;2.50;1.90;;;4.90;4.90;;;;;;10371621;28;20211;-84
2024/01/25 11:52:44;;;;;;;2.60;1.60;;;5.10;1.00;;;;;;10303261;28;20233;-79
2024/01/25 11:58:06;;;;;;;1.50;0.97;;;5.80;99.90;;;;;;10320937;28;20204;-85
2024/01/25 12:03:28;;;;;;;3.77;2.27;;;6.20;1.00;;;;;;10361726;28;20217;-83
2024/01/25 12:08:51;;;;;;;5.00;2.93;;;5.90;1.00;;;;;;10373131;28;20221;-83
2024/01/25 12:14:13;;;;;;;5.30;3.50;;;5.60;1.00;;;;;;10384021;28;20200;-88
2024/01/25 12:19:34;;;;;;;4.37;2.60;;;5.20;1.00;;;;;;10304626;28;20255;-85
2024/01/25 12:24:59;;;;;;;1.23;1.00;;;4.90;77.40;;;;;;10297919;28;20415;-85
2024/01/25 12:30:20;;;;;;;5.13;2.03;;;4.70;99.90;;;;;;10356206;28;20593;-84
2024/01/25 12:35:42;;;;;;;5.63;1.87;;;4.60;1.00;;;;;;10289602;28;20681;-82
2024/01/25 12:41:04;;;;;;;3.53;2.30;;;4.50;1.00;;;;;;10288476;28;20228;-80
2024/01/25 12:46:29;;;;;;;4.47;1.80;;;4.40;1.00;;;;;;10270967;28;20250;-81
2024/01/25 12:51:52;;;;;;;3.40;1.93;;;4.40;1.00;;;;;;10331901;28;20255;-80
2024/01/25 12:57:13;;;;;;;2.97;1.47;;;4.40;1.00;;;;;;10321632;28;20217;-83
2024/01/25 13:02:35;;;;;;;9.47;3.00;;;4.30;1.00;;;;;;10287760;28;20206;-83
2024/01/25 13:07:56;;;;;;;4.23;1.80;;;4.20;99.90;;;;;;10288581;28;20198;-81
2024/01/25 13:13:18;;;;;;;2.70;1.77;;;4.20;1.00;;;;;;10275067;28;20239;-79
2024/01/25 13:18:39;;;;;;;3.37;1.90;;;4.20;1.00;;;;;;10382553;28;20269;-83
2024/01/25 13:24:00;;;;;;;3.03;1.60;;;4.00;1.00;;;;;;10285416;28;20203;-80
2024/01/25 13:29:22;;;;;;;2.43;1.30;;;3.90;1.00;;;;;;10383056;28;20209;-82
2024/01/25 13:34:43;;;;;;;5.60;2.67;;;4.00;1.00;;;;;;10372905;28;20214;-87
2024/01/25 13:40:08;;;;;;;3.80;2.40;;;4.10;41.10;;;;;;10371170;28;20263;-81
2024/01/25 13:45:29;;;;;;;3.13;1.93;;;4.00;1.00;;;;;;10371249;28;20285;-83
2024/01/25 13:50:50;;;;;;;2.17;1.70;;;4.00;1.00;;;;;;10372064;28;20456;-79
2024/01/25 13:56:12;;;;;;;4.80;2.30;;;4.10;1.00;;;;;;10401296;28;20194;-80
2024/01/25 14:01:33;;;;;;;2.13;1.40;;;4.00;1.00;;;;;;10277145;28;20210;-82
2024/01/25 14:06:57;;;;;;;8.00;3.20;;;3.90;99.90;;;;;;10347993;28;20207;-79
2024/01/25 14:12:18;;;;;;;4.40;2.70;;;3.80;1.00;;;;;;10327030;28;20226;-83
2024/01/25 14:17:40;;;;;;;4.63;2.73;;;3.80;99.90;;;;;;10443081;28;20516;-79
2024/01/25 14:23:01;;;;;;;4.00;2.00;;;3.70;99.90;;;;;;10496533;28;20226;-81
2024/01/25 14:28:23;;;;;;;8.53;4.50;;;3.70;99.90;;;;;;10426749;28;20766;-82
2024/01/25 14:33:44;;;;;;;6.93;3.53;;;3.70;1.00;;;;;;10378179;28;20226;-82
2024/01/25 14:39:08;;;;;;;5.97;2.80;;;3.60;1.00;;;;;;10378028;28;20237;-80
2024/01/25 14:44:29;;;;;;;6.77;3.53;;;3.60;1.00;;;;;;10383229;28;20270;-81
2024/01/25 14:49:53;;;;;;;5.60;2.57;;;3.60;1.00;;;;;;10330652;28;20219;-79
2024/01/25 14:55:15;;;;;;;7.93;3.70;;;3.60;1.00;;;;;;10291319;28;20382;-81
2024/01/25 15:00:36;;;;;;;10.03;4.20;;;3.60;1.00;;;;;;10303146;28;20210;-83
2024/01/25 15:05:59;;;;;;;2.80;1.83;;;3.50;1.00;;;;;;10290078;28;20211;-83
2024/01/25 15:11:22;;;;;;;8.43;5.17;;;3.50;99.90;;;;;;10290629;28;20305;-79
2024/01/25 15:16:44;;;;;;;9.83;4.20;;;3.50;1.00;;;;;;10378578;28;20516;-80
2024/01/25 15:22:05;;;;;;;7.57;3.23;;;3.40;1.00;;;;;;10498398;28;20497;-81
2024/01/25 15:27:27;;;;;;;8.30;4.00;;;3.40;1.00;;;;;;10426649;28;20244;-80
2024/01/25 15:32:48;;;;;;;9.77;4.93;;;3.30;99.90;;;;;;10361762;28;20460;-79
2024/01/25 15:38:10;;;;;;;11.83;5.17;;;3.30;99.90;;;;;;10289580;28;20252;-80
2024/01/25 15:43:31;;;;;;;4.20;2.07;;;3.30;1.00;;;;;;10304284;28;20507;-79
2024/01/25 15:48:54;;;;;;;4.70;2.00;;;3.20;1.00;;;;;;10374298;28;20374;-82
2024/01/25 15:54:15;;;;;;;9.20;4.87;;;3.20;1.00;;;;;;10353859;28;20300;-80
2024/01/25 15:59:36;;;;;;;6.00;2.63;;;3.20;1.00;;;;;;10348796;28;20544;-79
2024/01/25 16:05:00;;;;;;;10.37;4.43;;;3.20;1.00;;;;;;10265558;29;20436;-79
2024/01/25 16:10:22;;;;;;;7.57;4.10;;;3.30;1.00;;;;;;10351371;28;20286;-78
2024/01/25 16:15:43;;;;;;;14.50;6.00;;;3.20;99.90;;;;;;10421221;28;20201;-79
2024/01/25 16:21:05;;;;;;;5.43;3.17;;;3.20;99.90;;;;;;10503216;28;20284;-80
2024/01/25 16:26:26;;;;;;;6.60;3.27;;;3.10;12.80;;;;;;10279762;28;20202;-81
2024/01/25 16:31:48;;;;;;;5.67;2.60;;;3.00;1.00;;;;;;10392077;28;20303;-81
2024/01/25 16:37:23;;;;;;;7.10;2.77;;;3.10;1.00;;;;;;10395678;28;20210;-80
2024/01/25 16:42:44;;;;;;;6.13;2.67;;;3.10;52.00;;;;;;10376922;28;20199;-80
2024/01/25 16:48:06;;;;;;;4.90;3.00;;;3.00;99.90;;;;;;10292253;28;20198;-83
2024/01/25 16:53:30;;;;;;;7.50;3.47;;;3.00;1.00;;;;;;10359615;28;20234;-81
2024/01/25 16:58:54;;;;;;;4.87;2.77;;;2.90;1.00;;;;;;10352163;28;20203;-81
2024/01/25 17:04:18;;;;;;;8.53;4.87;;;2.90;1.00;;;;;;10352633;28;20494;-80
2024/01/25 17:09:40;;;;;;;8.07;4.77;;;3.00;1.00;;;;;;10399627;28;20198;-81
2024/01/25 17:15:03;;;;;;;7.67;4.00;;;3.00;99.90;;;;;;10397334;28;20201;-82
2024/01/25 17:20:24;;;;;;;6.60;3.80;;;3.00;99.90;;;;;;10503692;28;20546;-80
2024/01/25 17:25:46;;;;;;;6.67;2.90;;;3.10;1.00;;;;;;10391671;28;20521;-81
2024/01/25 17:31:11;;;;;;;16.17;5.27;;;2.90;1.00;;;;;;10406210;28;20226;-81
2024/01/25 17:36:34;;;;;;;9.73;3.97;;;3.00;1.00;;;;;;10374463;28;20201;-82
2024/01/25 17:41:55;;;;;;;6.03;2.63;;;2.90;1.00;;;;;;10362108;28;20244;-81
2024/01/25 17:47:16;;;;;;;5.03;2.27;;;3.00;1.00;;;;;;10341077;28;20214;-81
2024/01/25 17:52:38;;;;;;;4.87;2.80;;;3.00;99.90;;;;;;10353550;28;20272;-81
2024/01/25 17:57:59;;;;;;;5.37;2.90;;;3.00;99.90;;;;;;10341399;28;20462;-81
2024/01/25 18:03:20;;;;;;;4.30;1.93;;;3.00;99.90;;;;;;10351534;28;20222;-81
2024/01/25 18:08:41;;;;;;;8.70;2.80;;;3.00;1.00;;;;;;10289038;28;20233;-81
2024/01/25 18:14:03;;;;;;;2.77;1.90;;;3.00;1.00;;;;;;10360952;28;20226;-81
2024/01/25 18:19:29;;;;;;;4.63;2.90;;;3.00;1.00;;;;;;10429072;28;20245;-79
2024/01/25 18:24:52;;;;;;;9.27;5.83;;;3.00;99.90;;;;;;10387527;28;20256;-81
2024/01/25 18:30:15;;;;;;;11.87;7.67;;;3.00;1.00;;;;;;10388905;28;20252;-81
2024/01/25 18:35:37;;;;;;;14.43;8.47;;;3.00;1.00;;;;;;10324524;28;20238;-82
2024/01/25 18:41:00;;;;;;;5.03;2.80;;;3.00;99.90;;;;;;10364266;28;20413;-80
2024/01/25 18:46:22;;;;;;;4.27;2.57;;;3.10;60.10;;;;;;10360358;28;20219;-81
2024/01/25 18:51:43;;;;;;;4.70;2.13;;;3.10;99.90;;;;;;10321314;28;20261;-80
2024/01/25 18:57:05;;;;;;;6.70;3.57;;;3.10;1.00;;;;;;10389126;28;20187;-81
2024/01/25 19:02:26;;;;;;;12.93;6.53;;;3.00;1.00;;;;;;10333959;28;20382;-80
2024/01/25 19:07:52;;;;;;;10.83;5.77;;;3.00;1.00;;;;;;10302654;28;20207;-81
2024/01/25 19:13:13;;;;;;;6.67;4.43;;;2.90;1.00;;;;;;10302220;28;20539;-81
2024/01/25 19:18:35;;;;;;;8.53;4.33;;;3.00;1.00;;;;;;10490264;28;20448;-81
2024/01/25 19:23:56;;;;;;;8.07;3.43;;;2.90;99.90;;;;;;10492493;28;20196;-81
2024/01/25 19:29:19;;;;;;;7.57;3.97;;;2.90;1.00;;;;;;10419866;28;20206;-79
2024/01/25 19:34:40;;;;;;;7.07;3.53;;;3.00;99.90;;;;;;10391903;28;20230;-80
2024/01/25 19:40:02;;;;;;;13.53;6.43;;;3.00;1.00;;;;;;10379323;28;20192;-79
2024/01/25 19:45:23;;;;;;;17.30;7.37;;;3.10;1.00;;;;;;10350271;28;20195;-80
2024/01/25 19:50:45;;;;;;;5.83;3.10;;;3.10;1.00;;;;;;10371236;28;20257;-80
2024/01/25 19:56:06;;;;;;;5.40;2.93;;;3.10;79.20;;;;;;10357160;28;20195;-80
2024/01/25 20:01:28;;;;;;;8.23;3.10;;;3.10;1.00;;;;;;10360620;28;20311;-80
2024/01/25 20:06:50;;;;;;;6.67;2.70;;;3.10;1.00;;;;;;10308546;28;20271;-79
2024/01/25 20:12:11;;;;;;;6.83;2.07;;;3.10;99.90;;;;;;10395131;28;20301;-80
2024/01/25 20:17:32;;;;;;;4.07;2.23;;;3.10;99.90;;;;;;10442640;28;20223;-79
2024/01/25 20:22:54;;;;;;;3.90;2.10;;;3.00;99.90;;;;;;10340877;28;20206;-79
2024/01/25 20:28:15;;;;;;;6.87;2.70;;;2.90;99.90;;;;;;10364069;28;20202;-80
2024/01/25 20:33:36;;;;;;;12.73;4.53;;;2.90;1.00;;;;;;10378638;28;20310;-80
2024/01/25 20:38:58;;;;;;;7.87;2.47;;;2.90;99.90;;;;;;10363469;28;20219;-79
2024/01/25 20:44:19;;;;;;;3.30;1.87;;;2.90;43.50;;;;;;10401700;28;20394;-79
2024/01/25 20:49:42;;;;;;;3.43;1.90;;;2.90;99.90;;;;;;10322029;28;20210;-80
2024/01/25 20:55:06;;;;;;;4.47;1.77;;;2.90;99.90;;;;;;10282060;28;20414;-79
2024/01/25 21:00:27;;;;;;;2.90;1.83;;;2.90;99.90;;;;;;10393271;28;20198;-80
2024/01/25 21:05:48;;;;;;;3.83;1.87;;;2.90;99.90;;;;;;10392964;28;20281;-78
2024/01/25 21:11:12;;;;;;;4.03;1.40;;;2.90;99.90;;;;;;10274865;28;20417;-79
2024/01/25 21:16:33;;;;;;;4.13;1.63;;;2.90;99.90;;;;;;10374031;28;20192;-80
2024/01/25 21:21:54;;;;;;;12.47;6.67;;;3.00;99.90;;;;;;10398699;28;20261;-79
2024/01/25 21:27:17;;;;;;;10.63;3.97;;;3.00;99.90;;;;;;10362113;28;20515;-79
2024/01/25 21:32:38;;;;;;;11.40;5.50;;;3.00;99.90;;;;;;10375468;28;20310;-80
2024/01/25 21:37:59;;;;;;;10.37;3.80;;;3.00;99.90;;;;;;10350982;28;20204;-79
2024/01/25 21:43:20;;;;;;;5.27;3.27;;;3.00;99.90;;;;;;10288475;28;20252;-79
2024/01/25 21:48:44;;;;;;;4.70;2.00;;;3.00;99.90;;;;;;10304999;28;20223;-79
2024/01/25 21:54:06;;;;;;;6.47;2.90;;;3.00;99.90;;;;;;10384098;28;20225;-79
2024/01/25 21:59:27;;;;;;;4.03;1.63;;;3.00;99.90;;;;;;10264195;28;20479;-79
2024/01/25 22:04:48;;;;;;;4.03;1.60;;;3.00;99.90;;;;;;10348334;28;20399;-79
2024/01/25 22:10:12;;;;;;;5.80;1.70;;;3.10;1.00;;;;;;10374278;28;20214;-79
2024/01/25 22:15:34;;;;;;;4.03;2.17;;;3.10;99.90;;;;;;10412161;28;20203;-80
2024/01/25 22:20:58;;;;;;;2.60;1.40;;;3.10;99.90;;;;;;10422149;28;20326;-79
2024/01/25 22:26:19;;;;;;;4.20;2.00;;;3.10;99.90;;;;;;10322161;28;20195;-80
2024/01/25 22:31:41;;;;;;;5.43;2.10;;;3.00;99.90;;;;;;10405030;28;20272;-80
2024/01/25 22:37:02;;;;;;;4.43;2.50;;;3.00;99.90;;;;;;10388785;28;20195;-80
2024/01/25 22:42:23;;;;;;;5.53;2.50;;;3.20;99.90;;;;;;10372824;28;20237;-80
2024/01/25 22:47:45;;;;;;;3.47;1.90;;;3.20;1.00;;;;;;10374463;28;20270;-81
2024/01/25 22:53:06;;;;;;;4.77;2.50;;;3.20;99.90;;;;;;10379090;28;20269;-78
2024/01/25 22:58:27;;;;;;;6.17;2.47;;;3.10;67.80;;;;;;10286031;28;20249;-80
2024/01/25 23:03:51;;;;;;;4.70;2.57;;;3.10;99.90;;;;;;10377744;28;20207;-79
2024/01/25 23:09:14;;;;;;;5.63;3.07;;;3.10;99.90;;;;;;10456254;28;20550;-79
2024/01/25 23:14:35;;;;;;;5.83;2.43;;;3.10;1.00;;;;;;10493222;28;20224;-79
2024/01/25 23:19:57;;;;;;;10.47;3.40;;;3.10;47.10;;;;;;10345686;28;20267;-80
2024/01/25 23:25:18;;;;;;;6.70;3.10;;;3.10;99.90;;;;;;10410778;28;20285;-80
2024/01/25 23:30:40;;;;;;;4.53;1.80;;;3.10;99.90;;;;;;10366890;28;20233;-83
2024/01/25 23:36:05;;;;;;;3.23;1.90;;;3.10;99.90;;;;;;10330357;28;20528;-79
2024/01/25 23:41:28;;;;;;;3.53;1.60;;;3.00;99.90;;;;;;10378399;28;20556;-81
2024/01/25 23:46:50;;;;;;;5.93;1.90;;;3.10;99.90;;;;;;10395561;28;20272;-80
2024/01/25 23:52:14;;;;;;;2.40;1.40;;;3.00;99.90;;;;;;10392240;28;20222;-80
2024/01/25 23:57:35;;;;;;;2.63;1.53;;;3.10;99.90;;;;;;10357402;28;20192;-81
